createdAt,value
2022-10-23T00:00:39.623Z,54.06
2022-10-23T00:01:39.496Z,54.06
2022-10-23T00:02:39.682Z,53.96
2022-10-23T00:03:39.422Z,54.06
2022-10-23T00:04:39.386Z,54.06
2022-10-23T00:05:39.360Z,54.06
2022-10-23T00:06:39.311Z,54.06
2022-10-23T00:07:39.291Z,54.06
2022-10-23T00:08:39.306Z,54.06
2022-10-23T00:09:39.205Z,54.06
2022-10-23T00:10:39.174Z,54.06
2022-10-23T00:11:39.170Z,54.06
2022-10-23T00:12:39.374Z,54.06
2022-10-23T00:13:39.090Z,54.06
2022-10-23T00:14:39.075Z,54.06
2022-10-23T00:15:39.125Z,54.06
2022-10-23T00:16:38.985Z,54.06
2022-10-23T00:17:39.475Z,53.96
2022-10-23T00:18:38.886Z,53.96
2022-10-23T00:19:38.897Z,53.86
2022-10-23T00:20:38.918Z,53.96
2022-10-23T00:21:38.743Z,53.86
2022-10-23T00:22:38.856Z,53.96
2022-10-23T00:23:39.771Z,53.96
2022-10-23T00:24:38.651Z,53.96
2022-10-23T00:25:38.621Z,53.96
2022-10-23T00:26:38.589Z,53.86
2022-10-23T00:27:38.520Z,53.86
2022-10-23T00:28:38.490Z,53.86
2022-10-23T00:29:38.450Z,53.86
2022-10-23T00:30:38.536Z,53.86
2022-10-23T00:31:38.395Z,53.86
2022-10-23T00:32:38.323Z,53.86
2022-10-23T00:33:38.255Z,53.86
2022-10-23T00:34:38.225Z,53.86
2022-10-23T00:35:45.584Z,53.86
2022-10-23T00:36:38.126Z,53.86
2022-10-23T00:37:38.098Z,53.86
2022-10-23T00:38:38.053Z,53.86
2022-10-23T00:39:38.020Z,53.86
2022-10-23T00:40:38.018Z,53.86
2022-10-23T00:41:37.934Z,53.86
2022-10-23T00:42:37.905Z,53.86
2022-10-23T00:43:37.861Z,53.86
2022-10-23T00:44:37.826Z,53.76
2022-10-23T00:45:38.046Z,53.76
2022-10-23T00:46:37.732Z,53.76
2022-10-23T00:47:37.965Z,53.86
2022-10-23T00:48:37.892Z,53.76
2022-10-23T00:49:40.709Z,53.76
2022-10-23T00:50:37.583Z,53.76
2022-10-23T00:51:38.801Z,53.66
2022-10-23T00:52:37.528Z,53.76
2022-10-23T00:53:37.460Z,53.66
2022-10-23T00:54:37.442Z,53.66
2022-10-23T00:55:37.389Z,53.56
2022-10-23T00:56:37.357Z,53.56
2022-10-23T00:57:38.021Z,53.56
2022-10-23T00:58:37.283Z,53.56
2022-10-23T00:59:37.252Z,53.46
2022-10-23T01:00:37.222Z,53.46
2022-10-23T01:01:37.264Z,53.36
2022-10-23T01:02:37.298Z,53.39
2022-10-23T01:03:37.100Z,53.39
2022-10-23T01:04:37.059Z,53.29
2022-10-23T01:05:37.100Z,53.39
2022-10-23T01:06:36.994Z,53.29
2022-10-23T01:07:37.438Z,53.27
2022-10-23T01:08:36.942Z,53.19
2022-10-23T01:09:36.887Z,53.27
2022-10-23T01:10:36.873Z,53.19
2022-10-23T01:11:36.823Z,53.19
2022-10-23T01:12:37.075Z,53.19
2022-10-23T01:13:36.771Z,53.09
2022-10-23T01:14:36.948Z,53.06
2022-10-23T01:15:36.719Z,52.99
2022-10-23T01:16:36.958Z,52.99
2022-10-23T01:17:39.580Z,52.99
2022-10-23T01:18:36.810Z,52.99
2022-10-23T01:19:37.717Z,52.97
2022-10-23T01:20:38.708Z,52.89
2022-10-23T01:21:37.302Z,52.89
2022-10-23T01:22:36.888Z,52.79
2022-10-23T01:23:37.473Z,52.79
2022-10-23T01:24:38.157Z,52.79
2022-10-23T01:26:50.977Z,52.69
2022-10-23T01:26:55.974Z,52.69
2022-10-23T01:27:55.781Z,52.69
2022-10-23T01:28:55.761Z,52.69
2022-10-23T01:29:55.711Z,52.59
2022-10-23T01:30:55.691Z,52.59
2022-10-23T01:31:55.683Z,52.59
2022-10-23T01:32:57.002Z,52.49
2022-10-23T01:33:55.624Z,52.59
2022-10-23T01:34:55.590Z,52.49
2022-10-23T01:35:55.637Z,52.49
2022-10-23T01:36:55.524Z,52.49
2022-10-23T01:37:55.733Z,52.39
2022-10-23T01:38:55.507Z,52.39
2022-10-23T01:39:55.528Z,52.39
2022-10-23T01:40:55.453Z,52.39
2022-10-23T01:41:55.476Z,52.39
2022-10-23T01:42:55.480Z,52.29
2022-10-23T01:43:55.337Z,52.29
2022-10-23T01:44:55.336Z,52.29
2022-10-23T01:45:55.319Z,52.29
2022-10-23T01:46:55.308Z,52.39
2022-10-23T01:47:56.061Z,52.39
2022-10-23T01:48:55.254Z,52.39
2022-10-23T01:49:55.260Z,52.39
2022-10-23T01:50:55.357Z,52.39
2022-10-23T01:51:55.297Z,52.39
2022-10-23T01:52:55.312Z,52.39
2022-10-23T01:54:14.353Z,52.39
2022-10-23T01:54:55.277Z,52.39
2022-10-23T01:56:16.463Z,52.39
2022-10-23T01:56:55.238Z,52.39
2022-10-23T01:58:09.320Z,52.39
2022-10-23T01:59:04.248Z,52.29
2022-10-23T02:00:20.622Z,52.29
2022-10-23T02:00:55.197Z,52.19
2022-10-23T02:02:07.192Z,52.19
2022-10-23T02:02:55.012Z,52.19
2022-10-23T02:04:26.270Z,52.19
2022-10-23T02:05:02.717Z,52.19
2022-10-23T02:06:07.957Z,52.19
2022-10-23T02:07:03.402Z,52.19
2022-10-23T02:08:12.108Z,52.19
2022-10-23T02:08:55.006Z,52.19
2022-10-23T02:09:55.183Z,52.19
2022-10-23T02:11:01.103Z,52.19
2022-10-23T02:12:04.582Z,52.19
2022-10-23T02:12:55.614Z,52.19
2022-10-23T02:15:15.052Z,52.29
2022-10-23T02:15:27.091Z,52.19
2022-10-23T02:16:32.079Z,52.19
2022-10-23T02:17:37.221Z,52.19
2022-10-23T02:18:29.281Z,52.29
2022-10-23T02:19:27.229Z,52.19
2022-10-23T02:20:24.977Z,52.19
2022-10-23T02:21:26.390Z,52.19
2022-10-23T02:22:29.453Z,52.19
2022-10-23T02:23:25.675Z,52.29
2022-10-23T02:24:24.973Z,52.19
2022-10-23T02:25:25.637Z,52.19
2022-10-23T02:26:26.913Z,52.19
2022-10-23T02:27:25.920Z,52.19
2022-10-23T02:28:31.200Z,52.19
2022-10-23T02:29:24.687Z,52.19
2022-10-23T02:30:32.941Z,52.19
2022-10-23T02:31:28.446Z,52.19
2022-10-23T02:32:24.495Z,52.19
2022-10-23T02:33:32.579Z,52.19
2022-10-23T02:34:54.717Z,52.19
2022-10-23T02:35:51.699Z,52.19
2022-10-23T02:36:24.531Z,52.19
2022-10-23T02:37:37.930Z,52.19
2022-10-23T02:38:24.392Z,52.19
2022-10-23T02:39:24.248Z,52.19
2022-10-23T02:40:24.257Z,52.19
2022-10-23T02:41:24.191Z,52.19
2022-10-23T02:42:24.190Z,52.19
2022-10-23T02:43:24.141Z,52.19
2022-10-23T02:44:24.131Z,52.19
2022-10-23T02:45:24.197Z,52.19
2022-10-23T02:46:24.457Z,52.19
2022-10-23T02:47:24.245Z,52.19
2022-10-23T02:48:24.098Z,52.19
2022-10-23T02:49:23.992Z,52.09
2022-10-23T02:50:24.008Z,52.19
2022-10-23T02:51:23.990Z,52.19
2022-10-23T02:52:23.997Z,52.09
2022-10-23T02:53:23.977Z,52.09
2022-10-23T02:54:23.925Z,52.00
2022-10-23T02:55:23.881Z,52.00
2022-10-23T02:56:23.861Z,52.00
2022-10-23T02:57:23.838Z,52.00
2022-10-23T02:58:23.807Z,51.89
2022-10-23T02:59:23.809Z,51.89
2022-10-23T03:00:24.016Z,51.89
2022-10-23T03:01:23.934Z,51.79
2022-10-23T03:02:23.867Z,51.79
2022-10-23T03:03:23.691Z,51.79
2022-10-23T03:04:23.680Z,51.79
2022-10-23T03:05:23.656Z,51.70
2022-10-23T03:06:23.632Z,51.72
2022-10-23T03:07:23.612Z,51.70
2022-10-23T03:08:23.594Z,51.70
2022-10-23T03:09:23.549Z,51.62
2022-10-23T03:10:23.561Z,51.59
2022-10-23T03:11:23.492Z,51.59
2022-10-23T03:12:23.484Z,51.59
2022-10-23T03:13:23.469Z,51.59
2022-10-23T03:14:23.433Z,51.62
2022-10-23T03:15:23.419Z,51.62
2022-10-23T03:16:23.390Z,51.62
2022-10-23T03:17:23.406Z,51.62
2022-10-23T03:18:23.387Z,51.62
2022-10-23T03:19:23.323Z,51.62
2022-10-23T03:20:23.297Z,51.59
2022-10-23T03:21:23.282Z,51.62
2022-10-23T03:22:23.267Z,51.62
2022-10-23T03:23:23.230Z,51.62
2022-10-23T03:24:23.202Z,51.62
2022-10-23T03:25:23.201Z,51.62
2022-10-23T03:26:23.175Z,51.62
2022-10-23T03:27:23.188Z,51.52
2022-10-23T03:28:23.146Z,51.52
2022-10-23T03:29:23.098Z,51.52
2022-10-23T03:30:23.125Z,51.52
2022-10-23T03:31:23.054Z,51.52
2022-10-23T03:32:23.039Z,51.52
2022-10-23T03:33:23.045Z,51.52
2022-10-23T03:34:22.977Z,51.42
2022-10-23T03:35:22.978Z,51.52
2022-10-23T03:36:23.099Z,51.42
2022-10-23T03:37:22.914Z,51.42
2022-10-23T03:38:22.896Z,51.42
2022-10-23T03:39:22.884Z,51.42
2022-10-23T03:40:22.878Z,51.42
2022-10-23T03:41:22.827Z,51.42
2022-10-23T03:42:22.828Z,51.42
2022-10-23T03:43:22.790Z,51.42
2022-10-23T03:44:22.792Z,51.42
2022-10-23T03:45:22.772Z,51.42
2022-10-23T03:46:22.724Z,51.42
2022-10-23T03:47:22.717Z,51.42
2022-10-23T03:48:22.821Z,51.42
2022-10-23T03:49:22.656Z,51.42
2022-10-23T03:50:22.671Z,51.42
2022-10-23T03:51:22.588Z,51.42
2022-10-23T03:53:22.551Z,51.32
2022-10-23T03:54:22.579Z,51.42
2022-10-23T03:55:22.514Z,51.32
2022-10-23T03:56:22.509Z,51.32
2022-10-23T03:57:22.495Z,51.32
2022-10-23T03:58:22.468Z,51.32
2022-10-23T03:59:22.471Z,51.22
2022-10-23T04:00:22.421Z,51.22
2022-10-23T04:01:22.459Z,51.22
2022-10-23T04:02:22.438Z,51.22
2022-10-23T04:03:22.389Z,51.22
2022-10-23T04:04:22.374Z,51.22
2022-10-23T04:05:22.408Z,51.22
2022-10-23T04:06:22.287Z,51.22
2022-10-23T04:07:22.288Z,51.22
2022-10-23T04:08:22.276Z,51.22
2022-10-23T04:09:22.241Z,51.32
2022-10-23T04:10:22.216Z,51.22
2022-10-23T04:11:22.222Z,51.32
2022-10-23T04:12:22.183Z,51.32
2022-10-23T04:13:22.169Z,51.32
2022-10-23T04:14:22.133Z,51.42
2022-10-23T04:15:22.096Z,51.42
2022-10-23T04:16:22.070Z,51.42
2022-10-23T04:17:22.093Z,51.42
2022-10-23T04:18:22.025Z,51.52
2022-10-23T04:19:22.011Z,51.42
2022-10-23T04:20:21.981Z,51.42
2022-10-23T04:21:21.947Z,51.42
2022-10-23T04:22:24.742Z,51.42
2022-10-23T04:23:22.006Z,51.42
2022-10-23T04:24:21.886Z,51.42
2022-10-23T04:25:21.869Z,51.42
2022-10-23T04:26:21.856Z,51.42
2022-10-23T04:27:21.851Z,51.42
2022-10-23T04:28:21.786Z,51.42
2022-10-23T04:29:21.786Z,51.32
2022-10-23T04:30:21.748Z,51.32
2022-10-23T04:31:21.749Z,51.32
2022-10-23T04:32:21.734Z,51.32
2022-10-23T04:33:21.690Z,51.42
2022-10-23T04:34:21.696Z,51.32
2022-10-23T04:35:21.645Z,51.32
2022-10-23T04:36:21.612Z,51.32
2022-10-23T04:37:21.615Z,51.32
2022-10-23T04:38:21.572Z,51.32
2022-10-23T04:39:21.570Z,51.32
2022-10-23T04:40:21.534Z,51.22
2022-10-23T04:41:21.503Z,51.32
2022-10-23T04:42:21.567Z,51.32
2022-10-23T04:43:21.499Z,51.32
2022-10-23T04:44:21.463Z,51.22
2022-10-23T04:45:21.435Z,51.22
2022-10-23T04:46:21.419Z,51.32
2022-10-23T04:47:21.386Z,51.22
2022-10-23T04:48:24.400Z,51.22
2022-10-23T04:49:21.352Z,51.22
2022-10-23T04:50:21.306Z,51.32
2022-10-23T04:51:21.301Z,51.22
2022-10-23T04:52:21.926Z,51.22
2022-10-23T04:53:21.248Z,51.32
2022-10-23T04:54:21.231Z,51.32
2022-10-23T04:55:21.222Z,51.32
2022-10-23T04:56:21.190Z,51.32
2022-10-23T04:57:21.165Z,51.32
2022-10-23T04:58:21.167Z,51.32
2022-10-23T04:59:21.130Z,51.32
2022-10-23T05:00:21.128Z,51.32
2022-10-23T05:01:21.220Z,51.32
2022-10-23T05:02:21.061Z,51.22
2022-10-23T05:03:21.048Z,51.32
2022-10-23T05:04:21.021Z,51.32
2022-10-23T05:05:20.983Z,51.32
2022-10-23T05:06:20.967Z,51.32
2022-10-23T05:08:20.922Z,51.32
2022-10-23T05:09:20.929Z,51.32
2022-10-23T05:10:20.884Z,51.32
2022-10-23T05:11:20.910Z,51.32
2022-10-23T05:12:20.868Z,51.32
2022-10-23T05:13:20.824Z,51.32
2022-10-23T05:14:22.810Z,51.32
2022-10-23T05:15:20.784Z,51.22
2022-10-23T05:16:20.754Z,51.32
2022-10-23T05:17:20.754Z,51.32
2022-10-23T05:18:20.707Z,51.32
2022-10-23T05:19:23.415Z,51.22
2022-10-23T05:20:20.700Z,51.32
2022-10-23T05:21:20.818Z,51.32
2022-10-23T05:22:20.640Z,51.32
2022-10-23T05:23:20.613Z,51.32
2022-10-23T05:24:20.584Z,51.32
2022-10-23T05:25:20.582Z,51.32
2022-10-23T05:26:20.552Z,51.32
2022-10-23T05:27:20.597Z,51.32
2022-10-23T05:28:20.515Z,51.32
2022-10-23T05:29:20.487Z,51.32
2022-10-23T05:30:20.522Z,51.32
2022-10-23T05:31:20.445Z,51.32
2022-10-23T05:33:20.371Z,51.35
2022-10-23T05:34:20.370Z,51.32
2022-10-23T05:35:20.538Z,51.32
2022-10-23T05:36:20.303Z,51.32
2022-10-23T05:37:20.291Z,51.22
2022-10-23T05:38:20.257Z,51.25
2022-10-23T05:39:20.243Z,51.25
2022-10-23T05:40:20.217Z,51.32
2022-10-23T05:41:20.179Z,51.22
2022-10-23T05:42:20.159Z,51.32
2022-10-23T05:43:20.271Z,51.25
2022-10-23T05:44:20.107Z,51.22
2022-10-23T05:45:20.443Z,51.22
2022-10-23T05:46:20.075Z,51.32
2022-10-23T05:47:20.044Z,51.35
2022-10-23T05:48:29.964Z,51.32
2022-10-23T05:49:19.997Z,51.35
2022-10-23T05:50:19.978Z,51.35
2022-10-23T05:51:19.973Z,51.25
2022-10-23T05:52:20.393Z,51.22
2022-10-23T05:53:19.903Z,51.35
2022-10-23T05:54:19.902Z,51.35
2022-10-23T05:55:19.873Z,51.25
2022-10-23T05:56:19.838Z,51.25
2022-10-23T05:57:19.872Z,51.25
2022-10-23T05:58:19.796Z,51.22
2022-10-23T05:59:22.833Z,51.32
2022-10-23T06:00:19.776Z,51.25
2022-10-23T06:01:19.767Z,51.25
2022-10-23T06:02:19.916Z,51.25
2022-10-23T06:03:19.698Z,51.25
2022-10-23T06:04:19.667Z,51.25
2022-10-23T06:05:19.616Z,51.25
2022-10-23T06:06:19.686Z,51.25
2022-10-23T06:07:19.600Z,51.35
2022-10-23T06:08:19.589Z,51.35
2022-10-23T06:09:19.583Z,51.25
2022-10-23T06:10:19.553Z,51.25
2022-10-23T06:11:19.570Z,51.35
2022-10-23T06:12:19.514Z,51.25
2022-10-23T06:13:19.491Z,51.25
2022-10-23T06:14:19.469Z,51.35
2022-10-23T06:15:19.439Z,51.25
2022-10-23T06:16:19.429Z,51.25
2022-10-23T06:17:19.486Z,51.25
2022-10-23T06:18:19.378Z,51.25
2022-10-23T06:19:19.382Z,51.25
2022-10-23T06:20:19.358Z,51.25
2022-10-23T06:21:19.332Z,51.25
2022-10-23T06:23:19.292Z,51.25
2022-10-23T06:24:19.299Z,51.25
2022-10-23T06:25:19.283Z,51.25
2022-10-23T06:26:19.223Z,51.25
2022-10-23T06:27:19.229Z,51.25
2022-10-23T06:28:20.668Z,51.15
2022-10-23T06:29:19.154Z,51.25
2022-10-23T06:30:19.176Z,51.25
2022-10-23T06:31:19.141Z,51.25
2022-10-23T06:32:19.133Z,51.15
2022-10-23T06:33:19.110Z,51.15
2022-10-23T06:34:19.085Z,51.15
2022-10-23T06:35:19.066Z,51.15
2022-10-23T06:36:19.034Z,51.15
2022-10-23T06:37:19.030Z,51.15
2022-10-23T06:38:18.975Z,51.15
2022-10-23T06:39:18.992Z,51.15
2022-10-23T06:40:18.952Z,51.15
2022-10-23T06:41:18.955Z,51.15
2022-10-23T06:42:18.922Z,51.15
2022-10-23T06:43:18.882Z,51.05
2022-10-23T06:44:18.856Z,50.95
2022-10-23T06:45:18.868Z,50.65
2022-10-23T06:46:18.821Z,50.25
2022-10-23T06:47:18.822Z,50.65
2022-10-23T06:48:18.795Z,50.95
2022-10-23T06:49:18.766Z,51.35
2022-10-23T06:50:18.722Z,51.54
2022-10-23T06:51:18.717Z,51.65
2022-10-23T06:52:41.725Z,51.84
2022-10-23T06:53:18.676Z,51.75
2022-10-23T06:54:18.666Z,51.84
2022-10-23T06:55:18.629Z,52.04
2022-10-23T06:56:18.590Z,52.25
2022-10-23T06:57:18.611Z,52.14
2022-10-23T06:58:18.573Z,52.04
2022-10-23T06:59:18.587Z,54.04
2022-10-23T07:00:18.579Z,52.34
2022-10-23T07:01:18.717Z,52.25
2022-10-23T07:02:18.485Z,52.34
2022-10-23T07:03:18.471Z,52.42
2022-10-23T07:04:18.416Z,52.62
2022-10-23T07:05:18.413Z,53.11
2022-10-23T07:06:18.380Z,53.31
2022-10-23T07:07:18.348Z,53.41
2022-10-23T07:08:18.300Z,53.41
2022-10-23T07:09:18.292Z,53.11
2022-10-23T07:10:18.340Z,55.91
2022-10-23T07:11:18.223Z,52.89
2022-10-23T07:12:18.217Z,52.29
2022-10-23T07:13:18.151Z,52.19
2022-10-23T07:14:18.133Z,52.19
2022-10-23T07:15:18.107Z,52.19
2022-10-23T07:16:18.054Z,52.19
2022-10-23T07:17:18.035Z,52.09
2022-10-23T07:18:17.989Z,52.09
2022-10-23T07:19:17.980Z,52.29
2022-10-23T07:20:17.962Z,52.29
2022-10-23T07:21:17.922Z,52.39
2022-10-23T07:22:17.893Z,52.39
2022-10-23T07:23:17.878Z,52.69
2022-10-23T07:24:17.825Z,52.29
2022-10-23T07:25:17.826Z,52.49
2022-10-23T07:26:17.773Z,52.19
2022-10-23T07:27:17.993Z,52.29
2022-10-23T07:28:17.736Z,51.72
2022-10-23T07:29:17.731Z,51.92
2022-10-23T07:30:17.679Z,52.12
2022-10-23T07:31:17.647Z,52.22
2022-10-23T07:32:17.611Z,52.32
2022-10-23T07:33:17.618Z,52.32
2022-10-23T07:34:17.572Z,52.42
2022-10-23T07:35:17.557Z,52.51
2022-10-23T07:36:17.523Z,52.51
2022-10-23T07:37:17.514Z,52.72
2022-10-23T07:38:17.471Z,52.72
2022-10-23T07:39:17.441Z,52.81
2022-10-23T07:40:17.403Z,52.79
2022-10-23T07:41:17.373Z,52.89
2022-10-23T07:42:17.358Z,52.89
2022-10-23T07:43:17.314Z,52.89
2022-10-23T07:44:17.284Z,52.99
2022-10-23T07:45:17.258Z,53.09
2022-10-23T07:46:17.204Z,53.09
2022-10-23T07:47:17.221Z,53.09
2022-10-23T07:48:17.156Z,53.19
2022-10-23T07:49:17.114Z,53.39
2022-10-23T07:50:17.095Z,53.29
2022-10-23T07:51:17.063Z,53.29
2022-10-23T07:52:17.019Z,53.29
2022-10-23T07:53:17.021Z,53.39
2022-10-23T07:54:16.958Z,53.49
2022-10-23T07:55:16.932Z,53.49
2022-10-23T07:56:16.901Z,53.59
2022-10-23T07:57:16.889Z,53.69
2022-10-23T07:58:16.874Z,53.69
2022-10-23T07:59:16.840Z,53.78
2022-10-23T08:00:16.874Z,53.89
2022-10-23T08:01:16.839Z,53.89
2022-10-23T08:02:16.803Z,53.89
2022-10-23T08:03:16.728Z,53.99
2022-10-23T08:04:16.701Z,54.28
2022-10-23T08:05:16.843Z,54.38
2022-10-23T08:06:16.655Z,54.38
2022-10-23T08:07:16.685Z,54.38
2022-10-23T08:08:16.632Z,54.28
2022-10-23T08:09:16.700Z,54.38
2022-10-23T08:10:16.545Z,54.49
2022-10-23T08:11:16.598Z,54.49
2022-10-23T08:12:16.492Z,54.49
2022-10-23T08:13:16.462Z,54.49
2022-10-23T08:14:16.432Z,54.68
2022-10-23T08:15:16.874Z,54.68
2022-10-23T08:16:16.341Z,54.79
2022-10-23T08:17:16.912Z,54.79
2022-10-23T08:18:16.266Z,54.79
2022-10-23T08:19:16.425Z,54.88
2022-10-23T08:20:16.227Z,54.88
2022-10-23T08:21:16.185Z,54.98
2022-10-23T08:22:16.165Z,54.98
2022-10-23T08:23:16.229Z,54.98
2022-10-23T08:24:16.099Z,55.08
2022-10-23T08:25:16.142Z,54.98
2022-10-23T08:26:16.057Z,55.08
2022-10-23T08:27:15.997Z,55.08
2022-10-23T08:28:15.985Z,55.08
2022-10-23T08:29:15.944Z,55.18
2022-10-23T08:30:15.923Z,55.08
2022-10-23T08:31:15.890Z,54.68
2022-10-23T08:32:15.853Z,54.79
2022-10-23T08:33:15.820Z,54.49
2022-10-23T08:34:15.805Z,54.08
2022-10-23T08:35:15.740Z,53.99
2022-10-23T08:36:15.710Z,53.78
2022-10-23T08:37:15.685Z,53.39
2022-10-23T08:38:15.641Z,52.99
2022-10-23T08:39:16.240Z,52.99
2022-10-23T08:40:15.586Z,52.99
2022-10-23T08:41:15.529Z,52.89
2022-10-23T08:42:15.499Z,52.59
2022-10-23T08:43:15.471Z,52.42
2022-10-23T08:44:15.497Z,52.12
2022-10-23T08:45:15.810Z,52.12
2022-10-23T08:46:15.371Z,51.92
2022-10-23T08:47:15.309Z,52.92
2022-10-23T08:48:15.304Z,55.11
2022-10-23T08:49:15.254Z,55.80
2022-10-23T08:50:15.253Z,59.30
2022-10-23T08:51:15.180Z,60.29
2022-10-23T08:52:15.142Z,60.09
2022-10-23T08:53:15.093Z,59.79
2022-10-23T08:54:15.222Z,59.19
2022-10-23T08:55:15.264Z,58.89
2022-10-23T08:56:14.993Z,58.50
2022-10-23T08:57:14.976Z,58.00
2022-10-23T08:58:14.950Z,57.60
2022-10-23T08:59:14.901Z,57.20
2022-10-23T09:00:14.925Z,56.81
2022-10-23T09:01:15.042Z,56.30
2022-10-23T09:02:14.953Z,56.01
2022-10-23T09:03:14.840Z,55.61
2022-10-23T09:04:14.793Z,55.21
2022-10-23T09:05:15.896Z,54.91
2022-10-23T09:06:14.729Z,54.71
2022-10-23T09:07:14.684Z,54.51
2022-10-23T09:08:14.959Z,54.51
2022-10-23T09:09:14.636Z,54.31
2022-10-23T09:10:15.071Z,54.31
2022-10-23T09:11:14.589Z,54.41
2022-10-23T09:12:14.564Z,54.31
2022-10-23T09:13:14.531Z,54.31
2022-10-23T09:14:14.481Z,54.31
2022-10-23T09:15:14.479Z,54.31
2022-10-23T09:16:14.529Z,54.81
2022-10-23T09:18:14.399Z,55.21
2022-10-23T09:19:14.343Z,55.31
2022-10-23T09:20:14.317Z,55.21
2022-10-23T09:21:14.305Z,55.11
2022-10-23T09:22:14.256Z,55.31
2022-10-23T09:23:14.232Z,55.41
2022-10-23T09:24:14.215Z,55.41
2022-10-23T09:25:35.155Z,55.31
2022-10-23T09:26:14.147Z,55.41
2022-10-23T09:27:14.115Z,55.31
2022-10-23T09:28:14.059Z,55.31
2022-10-23T09:29:14.065Z,55.31
2022-10-23T09:30:14.048Z,55.11
2022-10-23T09:31:14.029Z,55.11
2022-10-23T09:32:13.992Z,55.11
2022-10-23T09:33:13.935Z,55.01
2022-10-23T09:34:13.948Z,54.81
2022-10-23T09:35:13.866Z,54.81
2022-10-23T09:36:13.847Z,54.81
2022-10-23T09:37:13.822Z,54.91
2022-10-23T09:38:13.769Z,54.98
2022-10-23T09:39:13.749Z,54.68
2022-10-23T09:40:14.246Z,54.79
2022-10-23T09:41:13.665Z,54.79
2022-10-23T09:42:13.645Z,54.49
2022-10-23T09:43:13.605Z,54.49
2022-10-23T09:44:13.551Z,54.49
2022-10-23T09:45:13.551Z,54.49
2022-10-23T09:46:13.483Z,54.58
2022-10-23T09:47:13.441Z,54.49
2022-10-23T09:48:13.396Z,54.46
2022-10-23T09:49:14.169Z,54.46
2022-10-23T09:50:13.282Z,54.16
2022-10-23T09:51:13.978Z,54.36
2022-10-23T09:52:13.201Z,54.06
2022-10-23T09:53:13.284Z,54.06
2022-10-23T09:54:13.093Z,54.16
2022-10-23T09:55:13.027Z,54.26
2022-10-23T09:56:12.982Z,53.96
2022-10-23T09:57:12.986Z,53.96
2022-10-23T09:58:12.885Z,54.06
2022-10-23T09:59:12.839Z,53.96
2022-10-23T10:00:12.830Z,54.06
2022-10-23T10:01:12.843Z,53.66
2022-10-23T10:02:12.797Z,53.86
2022-10-23T10:03:12.654Z,53.66
2022-10-23T10:04:12.669Z,53.74
2022-10-23T10:05:13.224Z,53.53
2022-10-23T10:06:12.496Z,53.74
2022-10-23T10:07:12.420Z,53.53
2022-10-23T10:08:12.404Z,53.53
2022-10-23T10:09:12.327Z,53.44
2022-10-23T10:10:12.278Z,53.44
2022-10-23T10:11:12.207Z,53.64
2022-10-23T10:12:12.164Z,53.53
2022-10-23T10:13:14.922Z,53.53
2022-10-23T10:14:12.080Z,53.34
2022-10-23T10:15:12.000Z,53.53
2022-10-23T10:16:11.960Z,53.34
2022-10-23T10:17:11.909Z,53.34
2022-10-23T10:18:11.865Z,53.34
2022-10-23T10:19:11.836Z,53.34
2022-10-23T10:20:11.755Z,53.34
2022-10-23T10:21:11.706Z,53.24
2022-10-23T10:22:11.655Z,53.24
2022-10-23T10:23:11.663Z,53.04
2022-10-23T10:24:11.575Z,53.34
2022-10-23T10:25:11.916Z,53.14
2022-10-23T10:26:11.477Z,53.34
2022-10-23T10:27:11.495Z,53.04
2022-10-23T10:28:11.354Z,53.04
2022-10-23T10:29:11.415Z,53.04
2022-10-23T10:30:11.297Z,53.04
2022-10-23T10:31:11.232Z,53.24
2022-10-23T10:32:11.168Z,53.02
2022-10-23T10:33:11.097Z,52.84
2022-10-23T10:34:11.075Z,52.81
2022-10-23T10:35:11.489Z,52.74
2022-10-23T10:36:11.040Z,52.72
2022-10-23T10:37:10.959Z,52.72
2022-10-23T10:38:10.881Z,52.62
2022-10-23T10:39:10.803Z,52.72
2022-10-23T10:40:10.800Z,52.81
2022-10-23T10:41:10.694Z,52.81
2022-10-23T10:42:10.703Z,52.81
2022-10-23T10:43:10.595Z,52.62
2022-10-23T10:44:10.579Z,52.62
2022-10-23T10:45:10.636Z,52.62
2022-10-23T10:46:10.777Z,52.62
2022-10-23T10:47:10.719Z,52.62
2022-10-23T10:48:10.477Z,52.62
2022-10-23T10:49:11.412Z,52.62
2022-10-23T10:50:10.371Z,52.51
2022-10-23T10:51:10.204Z,52.62
2022-10-23T10:52:10.173Z,52.51
2022-10-23T10:53:10.956Z,52.51
2022-10-23T10:54:10.142Z,52.42
2022-10-23T10:55:10.010Z,52.51
2022-10-23T10:57:09.934Z,52.42
2022-10-23T10:58:09.888Z,52.42
2022-10-23T10:59:09.882Z,52.42
2022-10-23T11:00:09.813Z,52.32
2022-10-23T11:01:09.885Z,52.32
2022-10-23T11:02:09.796Z,52.32
2022-10-23T11:03:09.637Z,52.32
2022-10-23T11:04:09.601Z,52.32
2022-10-23T11:05:09.807Z,52.32
2022-10-23T11:06:09.496Z,52.32
2022-10-23T11:07:09.425Z,52.22
2022-10-23T11:08:09.388Z,52.22
2022-10-23T11:09:20.206Z,52.29
2022-10-23T11:10:09.297Z,52.22
2022-10-23T11:11:09.380Z,52.19
2022-10-23T11:12:09.193Z,52.19
2022-10-23T11:13:09.126Z,52.19
2022-10-23T11:14:09.095Z,52.19
2022-10-23T11:15:09.876Z,52.19
2022-10-23T11:16:08.979Z,52.09
2022-10-23T11:17:08.911Z,52.09
2022-10-23T11:18:08.848Z,52.09
2022-10-23T11:19:11.510Z,52.09
2022-10-23T11:20:08.770Z,52.09
2022-10-23T11:21:08.689Z,52.09
2022-10-23T11:22:08.641Z,52.09
2022-10-23T11:23:08.593Z,52.09
2022-10-23T11:25:08.477Z,52.09
2022-10-23T11:26:08.464Z,52.09
2022-10-23T11:27:08.387Z,52.09
2022-10-23T11:28:10.503Z,52.00
2022-10-23T11:29:08.250Z,52.09
2022-10-23T11:30:08.191Z,52.00
2022-10-23T11:31:11.890Z,52.09
2022-10-23T11:32:08.151Z,52.09
2022-10-23T11:33:08.026Z,52.09
2022-10-23T11:34:08.104Z,52.09
2022-10-23T11:35:07.925Z,52.09
2022-10-23T11:36:07.887Z,52.00
2022-10-23T11:37:07.921Z,52.00
2022-10-23T11:38:07.808Z,52.00
2022-10-23T11:39:08.170Z,52.00
2022-10-23T11:40:07.694Z,52.00
2022-10-23T11:41:07.627Z,52.00
2022-10-23T11:42:07.567Z,52.00
2022-10-23T11:43:07.486Z,52.00
2022-10-23T11:44:07.450Z,52.00
2022-10-23T11:45:07.388Z,51.89
2022-10-23T11:46:07.324Z,52.00
2022-10-23T11:47:07.272Z,51.89
2022-10-23T11:48:07.239Z,52.00
2022-10-23T11:49:07.238Z,52.00
2022-10-23T11:50:07.220Z,52.00
2022-10-23T11:51:07.711Z,52.00
2022-10-23T11:52:07.001Z,51.89
2022-10-23T11:53:15.388Z,52.00
2022-10-23T11:54:06.909Z,51.89
2022-10-23T11:55:06.805Z,51.89
2022-10-23T11:56:06.762Z,51.89
2022-10-23T11:57:10.286Z,51.89
2022-10-23T11:58:06.635Z,51.89
2022-10-23T11:59:07.335Z,51.89
2022-10-23T12:00:06.503Z,51.89
2022-10-23T12:01:06.476Z,51.89
2022-10-23T12:02:06.430Z,51.87
2022-10-23T12:03:06.494Z,51.79
2022-10-23T12:04:06.538Z,51.89
2022-10-23T12:05:06.212Z,51.77
2022-10-23T12:06:06.143Z,51.77
2022-10-23T12:07:06.090Z,51.79
2022-10-23T12:08:06.141Z,51.77
2022-10-23T12:09:05.962Z,51.77
2022-10-23T12:10:05.913Z,51.79
2022-10-23T12:11:05.864Z,51.79
2022-10-23T12:12:05.826Z,51.97
2022-10-23T12:13:05.789Z,52.59
2022-10-23T12:14:05.873Z,53.06
2022-10-23T12:15:05.673Z,53.49
2022-10-23T12:16:05.664Z,53.78
2022-10-23T12:17:05.608Z,53.88
2022-10-23T12:18:05.546Z,53.98
2022-10-23T12:19:05.517Z,53.78
2022-10-23T12:20:05.449Z,53.78
2022-10-23T12:21:05.397Z,54.08
2022-10-23T12:22:05.397Z,54.28
2022-10-23T12:23:06.507Z,54.28
2022-10-23T12:24:05.319Z,54.31
2022-10-23T12:25:05.280Z,54.60
2022-10-23T12:26:05.843Z,54.60
2022-10-23T12:27:05.161Z,54.50
2022-10-23T12:28:05.100Z,54.71
2022-10-23T12:29:05.072Z,55.00
2022-10-23T12:30:05.089Z,55.10
2022-10-23T12:31:04.992Z,55.30
2022-10-23T12:32:05.804Z,55.60
2022-10-23T12:33:04.918Z,55.60
2022-10-23T12:34:05.105Z,55.70
2022-10-23T12:35:04.820Z,55.63
2022-10-23T12:36:04.792Z,55.73
2022-10-23T12:37:04.749Z,55.53
2022-10-23T12:38:04.712Z,55.53
2022-10-23T12:39:04.741Z,55.43
2022-10-23T12:40:04.634Z,55.53
2022-10-23T12:41:04.597Z,55.63
2022-10-23T12:42:04.578Z,55.53
2022-10-23T12:43:04.655Z,55.53
2022-10-23T12:44:04.509Z,55.53
2022-10-23T12:45:04.484Z,55.53
2022-10-23T12:46:04.407Z,55.53
2022-10-23T12:47:04.941Z,55.53
2022-10-23T12:48:04.362Z,55.43
2022-10-23T12:49:04.335Z,55.33
2022-10-23T12:50:04.520Z,55.35
2022-10-23T12:51:04.261Z,55.26
2022-10-23T12:52:04.184Z,55.35
2022-10-23T12:53:04.132Z,55.26
2022-10-23T12:54:04.134Z,55.26
2022-10-23T12:55:04.142Z,55.16
2022-10-23T12:56:04.057Z,55.05
2022-10-23T12:57:04.036Z,55.05
2022-10-23T12:58:04.790Z,54.96
2022-10-23T12:59:03.943Z,54.96
2022-10-23T13:00:03.987Z,54.96